Airport View

Enter AWOS ICAO identifier for current METAR.

ex. KFNL

KCMY 191945Z AUTO 06007KT 10SM SCT050 BKN080 24/12 A2977 RMK AO2 T02390116

19 Jun 2019 19:55

Frequency: 119.775

Phone: 608-269-0724

Other Area AWOS: KBCK - KVOK - KLSE - KY51

TAF KVOK 191700Z 1917/2023 VRB06KT 9999 FEW030 SCT250 QNH2978INS BECMG 1920/1921 VRB06KT 9999 FEW030 SCT075 BKN200 QNH2976INS BECMG 2010/2011 06009KT 8000 BR BKN010 OVC060 QNH2975INS BECMG 2012/2013 VRB06KT 9999 NSW SCT045 QNH2981INS TX24/1922Z TN11/2011Z